createdAt,value
2022-12-20T00:00:05.365Z,0.90
2022-12-20T00:05:07.897Z,0.80
2022-12-20T00:10:10.475Z,0.80
2022-12-20T00:15:12.710Z,0.70
2022-12-20T00:20:15.072Z,0.90
2022-12-20T00:25:17.632Z,0.90
2022-12-20T00:30:20.664Z,1.00
2022-12-20T00:35:23.003Z,1.00
2022-12-20T00:40:27.043Z,1.00
2022-12-20T00:45:29.311Z,1.00
2022-12-20T00:50:31.857Z,1.00
2022-12-20T00:55:34.041Z,1.00
2022-12-20T01:00:36.777Z,1.10
2022-12-20T01:05:39.654Z,1.10
2022-12-20T01:10:42.486Z,1.00
2022-12-20T01:15:45.027Z,1.00
2022-12-20T01:20:47.319Z,1.00
2022-12-20T01:25:51.762Z,0.80
2022-12-20T01:30:54.010Z,0.70
2022-12-20T01:35:59.464Z,0.80
2022-12-20T01:41:02.618Z,0.80
2022-12-20T01:46:04.901Z,0.80
2022-12-20T01:51:07.751Z,0.90
2022-12-20T01:56:11.130Z,1.00
2022-12-20T02:01:13.600Z,1.10
2022-12-20T02:06:20.583Z,1.20
2022-12-20T02:16:48.749Z,1.20
2022-12-20T02:22:16.726Z,1.10
2022-12-20T02:27:48.643Z,1.20
2022-12-20T02:44:04.454Z,1.40
2022-12-20T02:49:14.286Z,1.40
2022-12-20T02:54:17.996Z,1.40
2022-12-20T02:59:27.437Z,1.40
2022-12-20T03:04:34.971Z,1.10
2022-12-20T03:09:40.267Z,1.30
2022-12-20T03:14:42.665Z,1.30
2022-12-20T03:19:47.211Z,1.40
2022-12-20T03:24:50.380Z,1.10
2022-12-20T03:29:53.119Z,1.10
2022-12-20T03:34:55.658Z,1.40
2022-12-20T03:40:08.232Z,1.20
2022-12-20T03:45:11.276Z,1.30
2022-12-20T03:50:13.977Z,1.40
2022-12-20T03:55:19.143Z,1.50
2022-12-20T04:00:21.933Z,1.60
2022-12-20T04:05:28.874Z,1.50
2022-12-20T04:10:32.792Z,1.50
2022-12-20T04:15:35.146Z,1.30
2022-12-20T04:20:37.819Z,1.00
2022-12-20T04:25:51.159Z,0.70
2022-12-20T04:30:54.122Z,0.90
2022-12-20T04:36:00.185Z,0.80
2022-12-20T04:41:04.186Z,1.00
2022-12-20T04:46:17.656Z,1.20
2022-12-20T04:51:20.581Z,1.20
2022-12-20T04:56:26.219Z,1.30
2022-12-20T05:01:29.016Z,1.30
2022-12-20T05:06:31.508Z,1.30
2022-12-20T05:11:34.306Z,1.40
2022-12-20T05:16:39.293Z,1.30
2022-12-20T05:22:02.152Z,1.40
2022-12-20T05:27:06.368Z,1.50
2022-12-20T05:32:08.720Z,1.60
2022-12-20T05:37:16.662Z,1.20
2022-12-20T05:42:19.645Z,1.20
2022-12-20T05:47:25.323Z,1.30
2022-12-20T05:52:36.386Z,1.40
2022-12-20T05:57:39.030Z,1.50
2022-12-20T06:02:41.648Z,1.50
2022-12-20T06:07:44.363Z,1.40
2022-12-20T06:12:48.865Z,1.50
2022-12-20T06:17:51.979Z,1.60
2022-12-20T06:22:54.472Z,1.70
2022-12-20T06:27:57.072Z,1.80
2022-12-20T06:33:00.137Z,1.80
2022-12-20T06:38:02.708Z,1.90
2022-12-20T06:43:08.653Z,1.90
2022-12-20T06:48:11.681Z,2.00
2022-12-20T06:53:14.815Z,2.20
2022-12-20T06:58:18.236Z,2.30
2022-12-20T07:03:22.838Z,2.50
2022-12-20T07:08:25.723Z,2.70
2022-12-20T07:13:27.958Z,2.70
2022-12-20T07:18:30.931Z,2.70
2022-12-20T07:23:33.508Z,2.80
2022-12-20T07:28:35.748Z,3.00
2022-12-20T07:33:38.887Z,3.10
2022-12-20T07:38:41.120Z,3.20
2022-12-20T07:43:43.755Z,3.40
2022-12-20T07:48:46.069Z,3.80
2022-12-20T07:53:53.126Z,5.80
2022-12-20T07:58:58.614Z,7.40
2022-12-20T08:04:05.859Z,8.90
2022-12-20T08:09:10.220Z,10.10
2022-12-20T08:14:13.155Z,11.20
2022-12-20T08:19:15.374Z,10.60
2022-12-20T08:24:17.649Z,10.80
2022-12-20T08:29:19.889Z,11.70
2022-12-20T08:34:22.187Z,12.70
2022-12-20T08:39:24.457Z,12.70
2022-12-20T08:44:26.705Z,12.90
2022-12-20T08:49:28.943Z,13.00
2022-12-20T08:54:31.251Z,13.00
2022-12-20T08:59:33.486Z,13.80
2022-12-20T09:04:35.780Z,13.40
2022-12-20T09:09:38.016Z,12.40
2022-12-20T09:14:40.281Z,11.40
2022-12-20T09:19:42.456Z,10.80
2022-12-20T09:24:44.714Z,10.40
2022-12-20T09:29:46.988Z,10.00
2022-12-20T09:34:49.930Z,9.50
2022-12-20T09:39:52.180Z,8.90
2022-12-20T09:45:06.264Z,8.40
2022-12-20T09:55:39.372Z,7.60
2022-12-20T10:00:53.493Z,7.40
2022-12-20T10:06:00.861Z,7.20
2022-12-20T10:11:36.604Z,7.20
2022-12-20T10:16:47.825Z,7.00
2022-12-20T10:27:15.527Z,6.60
2022-12-20T10:32:21.646Z,6.60
2022-12-20T10:37:23.942Z,6.40
2022-12-20T10:47:41.766Z,6.20
2022-12-20T10:52:45.761Z,6.60
2022-12-20T10:57:48.019Z,6.40
2022-12-20T11:03:12.000Z,6.50
2022-12-20T11:08:47.427Z,6.60
2022-12-20T11:13:41.731Z,6.60
2022-12-20T11:24:10.759Z,6.70
2022-12-20T12:00:26.470Z,6.60
2022-12-20T12:05:44.289Z,6.60
2022-12-20T12:11:40.024Z,6.60
2022-12-20T12:16:42.787Z,6.60
2022-12-20T12:21:52.603Z,6.70
2022-12-20T12:26:55.528Z,6.60
2022-12-20T12:52:54.169Z,6.40
2022-12-20T12:57:58.352Z,6.50
2022-12-20T13:03:14.339Z,6.50
2022-12-20T13:08:17.921Z,6.50
2022-12-20T13:13:23.709Z,6.50
2022-12-20T13:18:26.522Z,6.60
2022-12-20T13:23:28.799Z,6.50
2022-12-20T13:33:44.288Z,6.50
2022-12-20T13:44:01.305Z,6.30
2022-12-20T13:49:05.474Z,6.20
2022-12-20T13:54:15.473Z,6.10
2022-12-20T13:59:27.862Z,5.90
2022-12-20T14:04:56.097Z,5.80
2022-12-20T14:10:01.961Z,5.70
2022-12-20T14:15:23.162Z,5.60
2022-12-20T14:20:32.332Z,5.60
2022-12-20T14:25:40.114Z,5.60
2022-12-20T14:30:44.741Z,5.60
2022-12-20T14:35:49.224Z,5.60
2022-12-20T14:40:54.109Z,5.50
2022-12-20T14:46:19.688Z,5.50
2022-12-20T14:51:22.227Z,5.50
2022-12-20T14:56:31.507Z,5.40
2022-12-20T15:01:39.924Z,5.40
2022-12-20T15:06:46.093Z,5.40
2022-12-20T15:11:49.122Z,5.30
2022-12-20T15:16:52.190Z,5.30
2022-12-20T15:21:54.751Z,5.20
2022-12-20T15:26:57.205Z,5.10
2022-12-20T15:32:09.432Z,5.00
2022-12-20T15:37:18.199Z,4.90
2022-12-20T15:42:23.021Z,4.80
2022-12-20T15:47:25.274Z,4.80
2022-12-20T15:52:27.632Z,4.80
2022-12-20T15:57:30.849Z,4.80
2022-12-20T16:02:33.681Z,4.80
2022-12-20T16:07:36.109Z,4.80
2022-12-20T16:12:38.691Z,4.60
2022-12-20T16:17:40.901Z,4.60
2022-12-20T16:22:43.520Z,4.50
2022-12-20T16:27:45.772Z,4.40
2022-12-20T16:32:48.021Z,4.50
2022-12-20T16:37:50.574Z,4.50
2022-12-20T16:42:53.922Z,4.40
2022-12-20T16:47:57.046Z,4.40
2022-12-20T16:52:59.563Z,4.30
2022-12-20T16:58:02.031Z,4.20
2022-12-20T17:03:04.852Z,4.20
2022-12-20T17:13:27.285Z,4.20
2022-12-20T17:18:29.646Z,4.10
2022-12-20T17:23:37.997Z,4.20
2022-12-20T17:28:40.340Z,4.20
2022-12-20T17:33:42.669Z,4.20
2022-12-20T17:38:45.247Z,4.10
2022-12-20T17:43:47.627Z,4.10
2022-12-20T17:48:50.562Z,4.00
2022-12-20T17:53:56.514Z,3.90
2022-12-20T17:59:00.274Z,3.90
2022-12-20T18:04:06.788Z,3.90
2022-12-20T18:09:18.889Z,3.90
2022-12-20T18:14:21.115Z,3.80
2022-12-20T18:19:23.371Z,3.80
2022-12-20T18:24:25.777Z,3.80
2022-12-20T18:29:28.613Z,3.80
2022-12-20T18:34:30.860Z,3.60
2022-12-20T18:39:33.505Z,3.60
2022-12-20T18:44:36.381Z,3.50
2022-12-20T18:49:38.723Z,3.50
2022-12-20T18:54:41.141Z,3.50
2022-12-20T18:59:43.661Z,3.50
2022-12-20T19:04:46.130Z,3.50
2022-12-20T19:09:48.486Z,3.50
2022-12-20T19:14:50.908Z,3.50
2022-12-20T19:19:53.282Z,3.60
2022-12-20T19:24:56.799Z,3.60
2022-12-20T19:29:59.045Z,3.60
2022-12-20T19:35:16.385Z,3.60
2022-12-20T19:40:23.519Z,3.60
2022-12-20T19:45:25.805Z,3.60
2022-12-20T19:50:28.329Z,3.60
2022-12-20T19:55:30.696Z,3.60
2022-12-20T20:00:33.586Z,3.60
2022-12-20T20:05:35.911Z,3.60
2022-12-20T20:16:01.156Z,3.60
2022-12-20T20:21:14.235Z,3.60
2022-12-20T20:26:19.347Z,3.60
2022-12-20T20:31:22.407Z,3.70
2022-12-20T20:36:24.997Z,3.60
2022-12-20T20:41:27.477Z,3.70
2022-12-20T20:46:30.061Z,3.70
2022-12-20T20:51:32.487Z,3.70
2022-12-20T20:56:34.852Z,3.80
2022-12-20T21:01:37.565Z,3.90
2022-12-20T21:06:42.164Z,4.00
2022-12-20T21:11:44.952Z,4.10
2022-12-20T21:16:47.426Z,4.10
2022-12-20T21:21:49.786Z,4.10
2022-12-20T21:26:53.885Z,4.10
2022-12-20T21:31:56.589Z,4.10
2022-12-20T21:36:58.980Z,4.00
2022-12-20T21:42:02.162Z,4.00
2022-12-20T21:47:05.195Z,3.90
2022-12-20T21:52:07.488Z,3.90
2022-12-20T21:57:10.968Z,3.90
2022-12-20T22:02:14.442Z,3.90
2022-12-20T22:08:16.391Z,3.90
2022-12-20T22:13:58.481Z,3.90
2022-12-20T22:19:02.025Z,4.00
2022-12-20T22:24:04.871Z,4.00
2022-12-20T22:29:07.988Z,4.00
2022-12-20T22:34:10.410Z,4.00
2022-12-20T22:39:14.383Z,4.00
2022-12-20T22:44:16.807Z,4.00
2022-12-20T22:49:19.099Z,3.90
2022-12-20T22:54:21.359Z,3.70
2022-12-20T22:59:23.592Z,3.70
2022-12-20T23:04:25.923Z,3.60
2022-12-20T23:09:28.316Z,3.70
2022-12-20T23:14:50.545Z,3.60
2022-12-20T23:20:12.639Z,3.70
2022-12-20T23:25:19.010Z,3.70
2022-12-20T23:30:23.778Z,3.70
2022-12-20T23:35:27.040Z,3.70
2022-12-20T23:40:29.317Z,3.70
2022-12-20T23:45:32.047Z,3.70
2022-12-20T23:50:34.256Z,3.70
2022-12-20T23:55:36.511Z,3.70
